MET'MAP v2.0
soon released !

Expected late october,
this new version will be
more efficient, smarter,
and hosted on a brand new
server x3 powerfull...
...and still free !


Not compatible ?
Try the mobile version !

LOG IN : | Subscribe | Disclaimer | Who is Orbifly ? |
ICAO code :

TAF - LGST Sitia - 30 Mar 2020 09:46 UTC - Data Source NOAA   


- Airport Elevation : 376 ft
- IATA code : JSH
- No reported NOTAMs.


LGST - Sitia

NO METAR
TAF TAF LGST
Valid from the 30 at 06:00 until the 30 at 15:00 UTC


300500Z 3006/3015 VRB05KT 9999 SCT020 BKN080
BECMG 3006/3008 10012KT
PROB40
TEMPO 3006/3015 5000 RA FEW018TCU SCT020 BKN080

Source NOAA


MET'MAP, your aeronautical weather chart ! - Copyright ORBIFLY December 2007

Programming & Development : Alexandra Zaïnal
Co-Developer : Marc-Olivier Méhu
Technical & hardware support : Manuel Goepfert
Concept & Financing : Baudouin d'Aumeries